createdAt,value
2022-11-19T00:01:31.067Z,-0.56
2022-11-19T00:06:34.261Z,-0.55
2022-11-19T00:11:56.209Z,-0.56
2022-11-19T00:16:59.420Z,-0.49
2022-11-19T00:22:02.732Z,-0.39
2022-11-19T00:27:06.254Z,-0.43
2022-11-19T00:32:09.557Z,-0.48
2022-11-19T00:37:12.770Z,-0.57
2022-11-19T00:42:16.080Z,-0.63
2022-11-19T00:47:19.697Z,-0.61
2022-11-19T00:52:22.903Z,-0.60
2022-11-19T00:57:26.109Z,-0.75
2022-11-19T01:02:29.422Z,-0.85
2022-11-19T01:07:32.686Z,-0.81
2022-11-19T01:12:56.013Z,-0.70
2022-11-19T01:17:59.222Z,-0.57
2022-11-19T01:23:02.530Z,-0.43
2022-11-19T01:28:06.966Z,-0.32
2022-11-19T01:33:10.792Z,-0.32
2022-11-19T01:38:14.104Z,-0.32
2022-11-19T01:43:17.412Z,-0.23
2022-11-19T01:48:32.600Z,-0.14
2022-11-19T01:53:37.039Z,-0.11
2022-11-19T01:58:42.401Z,-0.06
2022-11-19T02:03:47.280Z,-0.07
2022-11-19T02:08:50.963Z,-0.07
2022-11-19T02:14:03.491Z,-0.03
2022-11-19T02:19:32.611Z,0.04
2022-11-19T02:24:53.636Z,0.07
2022-11-19T02:30:05.134Z,0.04
2022-11-19T02:35:23.600Z,-0.01
2022-11-19T02:40:33.671Z,-0.02
2022-11-19T02:46:01.761Z,-0.04
2022-11-19T02:51:07.723Z,-0.08
2022-11-19T02:56:17.819Z,-0.15
2022-11-19T03:01:41.951Z,-0.27
2022-11-19T03:06:45.624Z,-0.44
2022-11-19T03:11:57.842Z,-0.57
2022-11-19T03:17:13.541Z,-0.65
2022-11-19T03:22:25.355Z,-0.78
2022-11-19T03:27:38.600Z,-0.93
2022-11-19T03:33:08.123Z,-0.96
2022-11-19T03:38:18.499Z,-0.97
2022-11-19T03:43:28.163Z,-1.04
2022-11-19T03:48:31.776Z,-1.09
2022-11-19T03:53:35.190Z,-1.14
2022-11-19T03:58:44.331Z,-1.23
2022-11-19T04:04:07.514Z,-1.26
2022-11-19T04:09:11.031Z,-1.33
2022-11-19T04:14:14.441Z,-1.45
2022-11-19T04:19:18.605Z,-1.57
2022-11-19T04:24:22.090Z,-1.65
2022-11-19T04:29:25.502Z,-1.70
2022-11-19T04:34:29.021Z,-1.67
2022-11-19T04:39:32.435Z,-1.65
2022-11-19T04:44:35.943Z,-1.63
2022-11-19T04:49:39.357Z,-1.56
2022-11-19T04:54:42.773Z,-1.52
2022-11-19T04:59:46.286Z,-1.53
2022-11-19T05:04:49.704Z,-1.57
2022-11-19T05:09:53.113Z,-1.59
2022-11-19T05:14:56.729Z,-1.60
2022-11-19T05:20:00.552Z,-1.59
2022-11-19T05:25:04.478Z,-1.62
2022-11-19T05:30:08.716Z,-1.67
2022-11-19T05:35:12.021Z,-1.72
2022-11-19T05:40:15.536Z,-1.74
2022-11-19T05:45:19.157Z,-1.77
2022-11-19T05:50:22.671Z,-1.84
2022-11-19T05:55:26.186Z,-1.84
2022-11-19T06:00:29.642Z,-1.83
2022-11-19T06:05:38.774Z,-1.81
2022-11-19T06:10:43.594Z,-1.81
2022-11-19T06:15:47.314Z,-1.79
2022-11-19T06:20:50.627Z,-1.74
2022-11-19T06:25:55.061Z,-1.70
2022-11-19T06:30:58.372Z,-1.68
2022-11-19T06:36:01.900Z,-1.62
2022-11-19T06:41:06.019Z,-1.52
2022-11-19T06:46:11.073Z,-1.45
2022-11-19T06:51:14.382Z,-1.38
2022-11-19T06:56:17.898Z,-1.30
2022-11-19T07:01:21.330Z,-1.25
2022-11-19T07:06:24.825Z,-1.21
2022-11-19T07:11:28.244Z,-1.17
2022-11-19T07:16:34.734Z,-1.07
2022-11-19T07:21:38.342Z,-1.02
2022-11-19T07:26:41.862Z,-0.92
2022-11-19T07:31:47.214Z,-0.81
2022-11-19T07:36:50.832Z,-0.69
2022-11-19T07:42:13.087Z,-0.53
2022-11-19T07:47:16.605Z,-0.39
2022-11-19T07:52:20.119Z,-0.38
2022-11-19T07:57:29.903Z,-0.48
2022-11-19T08:02:33.916Z,-0.51
2022-11-19T08:07:38.534Z,-0.49
2022-11-19T08:13:03.393Z,-0.48
2022-11-19T08:18:12.824Z,-0.41
2022-11-19T08:23:16.335Z,-0.23
2022-11-19T08:28:19.856Z,-0.05
2022-11-19T08:33:23.375Z,0.09
2022-11-19T08:39:00.779Z,0.23
2022-11-19T08:44:04.293Z,0.34
2022-11-19T08:49:08.527Z,0.44
2022-11-19T08:54:13.422Z,0.60
2022-11-19T08:59:17.053Z,0.70
2022-11-19T09:04:21.049Z,0.79
2022-11-19T09:09:24.856Z,0.86
2022-11-19T09:14:28.560Z,0.85
2022-11-19T09:19:31.870Z,0.94
2022-11-19T09:24:35.387Z,0.91
2022-11-19T09:29:38.803Z,0.91
2022-11-19T09:34:42.316Z,0.95
2022-11-19T09:39:46.241Z,1.12
2022-11-19T09:45:10.959Z,1.24
2022-11-19T09:50:21.841Z,1.15
2022-11-19T09:55:44.122Z,1.20
2022-11-19T10:00:47.611Z,1.21
2022-11-19T10:05:56.661Z,1.26
2022-11-19T10:11:06.523Z,1.19
2022-11-19T10:16:09.834Z,1.14
2022-11-19T10:21:30.860Z,1.17
2022-11-19T10:26:41.031Z,1.24
2022-11-19T10:31:49.874Z,1.34
2022-11-19T10:37:07.642Z,1.39
2022-11-19T10:42:26.700Z,1.41
2022-11-19T10:47:37.488Z,1.59
2022-11-19T10:52:45.619Z,1.70
2022-11-19T10:57:52.710Z,1.89
2022-11-19T11:03:03.266Z,2.01
2022-11-19T11:08:11.620Z,1.91
2022-11-19T11:13:47.798Z,1.74
2022-11-19T11:18:54.048Z,1.64
2022-11-19T11:23:58.153Z,1.61
2022-11-19T11:29:24.151Z,1.73
2022-11-19T11:34:31.981Z,1.80
2022-11-19T11:39:39.271Z,1.65
2022-11-19T11:44:52.619Z,1.57
2022-11-19T11:50:12.212Z,1.57
2022-11-19T11:55:24.643Z,1.62
2022-11-19T12:00:39.108Z,1.65
2022-11-19T12:06:02.718Z,1.62
2022-11-19T12:11:54.362Z,1.65
2022-11-19T12:17:00.517Z,1.64
2022-11-19T12:22:16.216Z,1.65
2022-11-19T12:27:28.846Z,1.63
2022-11-19T12:32:47.411Z,1.80
2022-11-19T12:38:06.190Z,2.04
2022-11-19T12:43:46.877Z,2.10
2022-11-19T12:48:50.285Z,1.99
2022-11-19T12:53:56.365Z,1.86
2022-11-19T12:59:41.660Z,1.65
2022-11-19T13:04:55.209Z,1.40
2022-11-19T13:10:06.405Z,1.21
2022-11-19T13:15:21.491Z,1.05
2022-11-19T13:20:31.971Z,0.85
2022-11-19T13:25:47.878Z,0.72
2022-11-19T13:30:54.258Z,0.58
2022-11-19T13:36:09.958Z,0.53
2022-11-19T13:41:23.716Z,0.50
2022-11-19T13:46:30.917Z,0.50
2022-11-19T13:51:37.405Z,0.55
2022-11-19T13:56:47.678Z,0.59
2022-11-19T14:02:31.026Z,0.54
2022-11-19T14:07:55.124Z,0.49
2022-11-19T14:13:26.086Z,0.45
2022-11-19T14:19:01.449Z,0.39
2022-11-19T14:24:45.616Z,0.33
2022-11-19T14:29:49.439Z,0.24
2022-11-19T14:35:01.555Z,0.21
2022-11-19T14:40:15.821Z,0.18
2022-11-19T14:45:20.729Z,0.14
2022-11-19T14:50:29.258Z,0.04
2022-11-19T14:55:34.776Z,-0.01
2022-11-19T15:00:41.491Z,-0.03
2022-11-19T15:05:46.813Z,-0.04
2022-11-19T15:11:05.394Z,-0.08
2022-11-19T15:16:12.483Z,-0.10
2022-11-19T15:21:59.823Z,-0.13
2022-11-19T15:27:15.425Z,-0.12
2022-11-19T15:32:28.157Z,-0.16
2022-11-19T15:37:53.690Z,-0.20
2022-11-19T15:43:14.202Z,-0.27
2022-11-19T15:48:24.015Z,-0.35
2022-11-19T15:53:28.501Z,-0.40
2022-11-19T15:58:43.283Z,-0.43
2022-11-19T16:03:47.719Z,-0.45
2022-11-19T16:08:55.228Z,-0.47
2022-11-19T16:14:17.277Z,-0.48
2022-11-19T16:19:21.266Z,-0.51
2022-11-19T16:24:45.507Z,-0.54
2022-11-19T16:29:49.349Z,-0.60
2022-11-19T16:34:52.851Z,-0.63
2022-11-19T16:39:56.462Z,-0.65
2022-11-19T16:45:08.697Z,-0.66
2022-11-19T16:50:42.455Z,-0.71
2022-11-19T16:55:52.374Z,-0.73
2022-11-19T17:00:59.754Z,-0.74
2022-11-19T17:06:04.832Z,-0.78
2022-11-19T17:11:41.115Z,-0.82
2022-11-19T17:16:52.312Z,-0.86
2022-11-19T17:22:18.273Z,-0.87
2022-11-19T17:27:33.138Z,-0.85
2022-11-19T17:32:40.847Z,-0.84
2022-11-19T17:37:44.114Z,-0.75
2022-11-19T17:43:06.105Z,-0.72
2022-11-19T17:48:22.318Z,-0.74
2022-11-19T17:53:25.736Z,-0.75
2022-11-19T17:58:29.350Z,-0.72
2022-11-19T18:03:32.868Z,-0.69
2022-11-19T18:08:37.305Z,-0.68
2022-11-19T18:13:42.686Z,-0.66
2022-11-19T18:18:46.315Z,-0.69
2022-11-19T18:23:52.364Z,-0.73
2022-11-19T18:28:56.898Z,-0.80
2022-11-19T18:34:00.101Z,-0.85
2022-11-19T18:39:03.623Z,-0.88
2022-11-19T18:44:30.073Z,-0.91
2022-11-19T18:49:35.323Z,-0.90
2022-11-19T18:54:38.745Z,-0.90
2022-11-19T18:59:42.360Z,-0.93
2022-11-19T19:04:50.679Z,-0.96
2022-11-19T19:09:54.614Z,-0.98
2022-11-19T19:14:59.256Z,-1.00
2022-11-19T19:20:02.565Z,-0.96
2022-11-19T19:25:06.397Z,-0.96
2022-11-19T19:30:10.595Z,-1.01
2022-11-19T19:35:13.932Z,-1.08
2022-11-19T19:40:17.449Z,-1.13
2022-11-19T19:45:20.863Z,-1.20
2022-11-19T19:50:24.171Z,-1.23
2022-11-19T19:55:27.686Z,-1.24
2022-11-19T20:00:31.202Z,-1.29
2022-11-19T20:05:34.615Z,-1.35
2022-11-19T20:10:38.132Z,-1.33
2022-11-19T20:15:41.646Z,-1.34
2022-11-19T20:20:45.162Z,-1.34
2022-11-19T20:25:51.344Z,-1.39
2022-11-19T20:31:08.454Z,-1.40
2022-11-19T20:36:14.879Z,-1.36
2022-11-19T20:41:38.237Z,-1.35
2022-11-19T20:46:42.794Z,-1.34
2022-11-19T20:51:46.813Z,-1.33
2022-11-19T20:56:52.371Z,-1.34
2022-11-19T21:01:57.159Z,-1.31
2022-11-19T21:07:00.612Z,-1.28
2022-11-19T21:12:04.763Z,-1.28
2022-11-19T21:17:08.069Z,-1.26
2022-11-19T21:22:11.590Z,-1.28
2022-11-19T21:27:15.101Z,-1.27
2022-11-19T21:32:18.924Z,-1.30
2022-11-19T21:37:22.336Z,-1.31
2022-11-19T21:42:26.263Z,-1.37
2022-11-19T21:47:29.674Z,-1.38
2022-11-19T21:52:33.196Z,-1.36
2022-11-19T21:57:36.602Z,-1.41
2022-11-19T22:02:40.325Z,-1.49
2022-11-19T22:07:46.503Z,-1.53
2022-11-19T22:12:49.914Z,-1.55
2022-11-19T22:17:53.432Z,-1.59
2022-11-19T22:22:58.487Z,-1.57
2022-11-19T22:28:02.204Z,-1.54
2022-11-19T22:33:05.821Z,-1.58
2022-11-19T22:38:09.240Z,-1.58
2022-11-19T22:43:12.751Z,-1.60
2022-11-19T22:48:16.263Z,-1.60
2022-11-19T22:53:19.785Z,-1.59
2022-11-19T22:58:23.297Z,-1.55
2022-11-19T23:03:27.327Z,-1.54
2022-11-19T23:08:30.845Z,-1.51
2022-11-19T23:13:39.288Z,-1.49
2022-11-19T23:18:50.570Z,-1.46
2022-11-19T23:23:54.907Z,-1.43
2022-11-19T23:28:59.138Z,-1.42
2022-11-19T23:34:02.548Z,-1.40
2022-11-19T23:39:09.907Z,-1.36
2022-11-19T23:44:13.475Z,-1.35
2022-11-19T23:49:16.986Z,-1.31
2022-11-19T23:54:20.502Z,-1.36
2022-11-19T23:59:25.771Z,-1.32
